Time;durP1;ratioP1;P1;durP2;ratioP2;P2;SDS_P1;SDS_P2;PMS_P1;PMS_P2;Temp;Humidity;BMP_temperature;BMP_pressure;BME280_temperature;BME280_humidity;BME280_pressure;Samples;Min_cycle;Max_cycle;Signal;HPM_P1;HPM_P2
2023/01/01 00:01:44;;;;;;;20.53;8.77;;;13.40;99.90;;;;;;5064361;28;20276;-69
2023/01/01 00:04:12;;;;;;;16.73;9.48;;;13.40;99.90;;;;;;5057457;28;20089;-69
2023/01/01 00:06:38;;;;;;;19.83;9.32;;;13.40;99.90;;;;;;5033328;28;20123;-68
2023/01/01 00:11:48;;;;;;;17.75;7.32;;;13.50;99.90;;;;;;5064103;28;20137;-69
2023/01/01 00:14:14;;;;;;;17.27;6.63;;;13.40;99.90;;;;;;5052129;28;20469;-69
2023/01/01 00:16:40;;;;;;;14.20;5.73;;;13.40;99.90;;;;;;5063935;28;20094;-69
2023/01/01 00:19:06;;;;;;;17.52;5.43;;;13.50;99.90;;;;;;5051800;28;20049;-69
2023/01/01 00:21:31;;;;;;;12.05;5.28;;;13.50;99.90;;;;;;5063225;28;20055;-68
2023/01/01 00:23:57;;;;;;;13.52;6.43;;;13.50;99.90;;;;;;5063273;28;21010;-69
2023/01/01 00:26:22;;;;;;;11.40;5.13;;;13.50;99.90;;;;;;5063227;28;20057;-69
2023/01/01 00:28:48;;;;;;;11.77;4.88;;;13.40;99.90;;;;;;5047226;28;20045;-69
2023/01/01 00:31:18;;;;;;;12.63;5.50;;;13.50;99.90;;;;;;5048081;28;20051;-69
2023/01/01 00:33:44;;;;;;;14.85;5.85;;;13.40;99.90;;;;;;5052105;28;20076;-69
2023/01/01 00:36:14;;;;;;;;;;;13.50;99.90;;;;;;5050765;28;20060;-69
2023/01/01 00:38:42;;;;;;;18.00;5.68;;;13.50;99.90;;;;;;5064652;28;20241;-68
2023/01/01 00:41:08;;;;;;;16.67;6.80;;;13.50;99.90;;;;;;5065185;28;20044;-69
2023/01/01 00:43:34;;;;;;;12.05;6.32;;;13.50;99.90;;;;;;5054343;28;20414;-69
2023/01/01 00:46:00;;;;;;;16.53;7.83;;;13.60;99.90;;;;;;5067246;28;20139;-69
2023/01/01 00:48:25;;;;;;;18.53;8.13;;;13.60;99.90;;;;;;5057609;28;20293;-69
2023/01/01 00:50:52;;;;;;;18.83;10.20;;;13.50;99.90;;;;;;5067541;28;20036;-69
2023/01/01 00:53:19;;;;;;;27.23;10.45;;;13.40;99.90;;;;;;5052270;28;20401;-69
2023/01/01 00:55:47;;;;;;;23.63;11.55;;;13.30;99.90;;;;;;5056292;28;20225;-70
2023/01/01 00:58:13;;;;;;;24.83;12.25;;;13.20;99.90;;;;;;5064504;28;20122;-69
2023/01/01 01:00:38;;;;;;;29.85;14.60;;;13.20;99.90;;;;;;5065436;28;20167;-69
2023/01/01 01:03:04;;;;;;;33.67;14.73;;;13.20;99.90;;;;;;5032364;28;20512;-69
2023/01/01 01:05:31;;;;;;;33.65;14.90;;;13.10;99.90;;;;;;5064285;28;20800;-69
2023/01/01 01:07:58;;;;;;;31.38;15.35;;;13.10;99.90;;;;;;5029254;28;20513;-69
2023/01/01 01:10:24;;;;;;;29.23;17.13;;;13.10;99.90;;;;;;5066959;28;20471;-70
2023/01/01 01:12:51;;;;;;;29.20;14.60;;;13.20;99.90;;;;;;5067489;28;20075;-68
2023/01/01 01:15:17;;;;;;;;;;;13.20;99.90;;;;;;5067589;28;20040;-69
2023/01/01 01:17:43;;;;;;;33.60;15.77;;;13.10;99.90;;;;;;5054896;28;19934;-69
2023/01/01 01:20:09;;;;;;;27.10;14.77;;;13.10;99.90;;;;;;5066889;28;20462;-69
2023/01/01 01:22:35;;;;;;;;;;;13.10;99.90;;;;;;5060001;28;20042;-69
2023/01/01 01:25:01;;;;;;;37.63;17.13;;;13.00;99.90;;;;;;5044640;28;20353;-69
2023/01/01 01:27:26;;;;;;;31.63;18.35;;;12.90;99.90;;;;;;5045687;28;20371;-68
2023/01/01 01:29:52;;;;;;;30.70;18.83;;;12.90;99.90;;;;;;5059899;28;20043;-69
2023/01/01 01:32:19;;;;;;;32.95;16.90;;;12.80;99.90;;;;;;5036916;28;20071;-69
2023/01/01 01:34:45;;;;;;;35.17;19.73;;;12.70;99.90;;;;;;5064550;28;20048;-69
2023/01/01 01:37:11;;;;;;;37.53;20.00;;;12.60;99.90;;;;;;5065682;28;20101;-68
2023/01/01 01:39:37;;;;;;;34.03;18.52;;;12.50;99.90;;;;;;5067158;28;20052;-69
2023/01/01 01:42:04;;;;;;;36.58;20.92;;;12.50;99.90;;;;;;5066642;28;20260;-69
2023/01/01 01:44:48;;;;;;;;;;;12.40;99.90;;;;;;5051911;28;20051;-69
2023/01/01 01:47:27;;;;;;;39.15;21.30;;;12.40;99.90;;;;;;5042042;28;19976;-69
2023/01/01 01:50:12;;;;;;;44.10;23.08;;;12.40;99.90;;;;;;5066349;28;20151;-69
2023/01/01 01:52:43;;;;;;;39.08;21.92;;;12.30;99.90;;;;;;5048666;28;20037;-70
2023/01/01 01:55:09;;;;;;;40.70;22.33;;;12.30;99.90;;;;;;5066394;28;20098;-69
2023/01/01 01:57:37;;;;;;;36.40;21.58;;;12.30;99.90;;;;;;5060291;28;20082;-68
2023/01/01 02:00:04;;;;;;;41.85;21.80;;;12.30;99.90;;;;;;5059785;28;20298;-69
2023/01/01 02:02:36;;;;;;;41.35;20.33;;;12.30;99.90;;;;;;5056462;28;20048;-69
2023/01/01 02:05:03;;;;;;;39.25;21.48;;;12.20;99.90;;;;;;5049412;28;20387;-70
2023/01/01 02:07:32;;;;;;;38.50;20.48;;;12.20;99.90;;;;;;5066579;28;20524;-69
2023/01/01 02:09:59;;;;;;;37.75;21.15;;;12.30;99.90;;;;;;5048888;28;20066;-69
2023/01/01 02:12:26;;;;;;;44.20;21.13;;;12.20;99.90;;;;;;5066590;28;20036;-69
2023/01/01 02:14:52;;;;;;;34.60;20.10;;;12.30;99.90;;;;;;5066086;28;20044;-69
2023/01/01 02:17:32;;;;;;;40.03;21.13;;;12.30;99.90;;;;;;5063616;28;20053;-68
2023/01/01 02:20:20;;;;;;;41.67;21.88;;;12.20;99.90;;;;;;5065789;28;20053;-69
2023/01/01 02:23:08;;;;;;;40.25;20.17;;;12.20;99.90;;;;;;5066029;28;20044;-69
2023/01/01 02:25:41;;;;;;;39.63;20.70;;;12.20;99.90;;;;;;5060505;28;20409;-69
2023/01/01 02:28:18;;;;;;;40.83;21.13;;;12.10;99.90;;;;;;5027033;28;20045;-69
2023/01/01 02:30:47;;;;;;;36.25;20.27;;;12.20;99.90;;;;;;5063403;28;20106;-68
2023/01/01 02:33:18;;;;;;;39.58;20.58;;;12.20;99.90;;;;;;5058074;28;20052;-68
2023/01/01 02:36:03;;;;;;;37.95;20.58;;;12.20;99.90;;;;;;5048590;28;20046;-68
2023/01/01 02:38:33;;;;;;;38.50;21.17;;;12.20;99.90;;;;;;5066001;28;20048;-69
2023/01/01 02:41:06;;;;;;;37.53;19.35;;;12.10;99.90;;;;;;5065092;28;20047;-69
2023/01/01 02:43:32;;;;;;;37.63;19.55;;;12.10;99.90;;;;;;5065076;28;20045;-69
2023/01/01 02:45:58;;;;;;;36.07;18.27;;;12.10;99.90;;;;;;5065901;28;20036;-70
2023/01/01 02:48:43;;;;;;;33.40;18.27;;;12.00;99.90;;;;;;5065925;28;20109;-68
2023/01/01 02:51:46;;;;;;;37.83;19.52;;;12.00;99.90;;;;;;5059962;28;20040;-68
2023/01/01 02:54:18;;;;;;;39.22;18.13;;;11.90;99.90;;;;;;5060146;28;20082;-68
2023/01/01 02:56:58;;;;;;;36.38;18.48;;;11.80;99.90;;;;;;5064642;28;20477;-69
2023/01/01 03:02:31;;;;;;;35.75;15.98;;;11.80;99.90;;;;;;5045317;28;20036;-68
2023/01/01 03:05:24;;;;;;;31.00;14.55;;;11.80;99.90;;;;;;5060342;28;20115;-68
2023/01/01 03:08:37;;;;;;;25.33;13.25;;;11.80;99.90;;;;;;5053955;28;20044;-69
2023/01/01 03:11:08;;;;;;;18.15;7.85;;;11.80;99.90;;;;;;4997395;28;20730;-68
2023/01/01 03:13:46;;;;;;;13.77;6.32;;;11.70;99.90;;;;;;5003603;28;20088;-69
2023/01/01 03:16:27;;;;;;;17.45;7.20;;;11.80;99.90;;;;;;5037407;28;20146;-69
2023/01/01 03:19:10;;;;;;;15.95;6.28;;;11.70;99.90;;;;;;5065527;28;20124;-68
2023/01/01 03:21:41;;;;;;;13.13;5.40;;;11.70;99.90;;;;;;5060275;28;20125;-68
2023/01/01 03:24:31;;;;;;;14.73;5.18;;;11.60;99.90;;;;;;5065586;28;20044;-68
2023/01/01 03:27:03;;;;;;;13.85;4.82;;;11.60;99.90;;;;;;5059303;28;20040;-68
2023/01/01 03:29:33;;;;;;;15.68;4.00;;;11.60;99.90;;;;;;5057693;28;20040;-69
2023/01/01 03:32:01;;;;;;;9.15;4.13;;;11.60;99.90;;;;;;5062998;28;20072;-69
2023/01/01 03:34:38;;;;;;;12.32;5.35;;;11.50;99.90;;;;;;5052197;28;20080;-69
2023/01/01 03:37:07;;;;;;;16.25;6.55;;;11.50;99.90;;;;;;5062540;28;20540;-68
2023/01/01 03:39:40;;;;;;;18.30;6.68;;;11.40;99.90;;;;;;5065070;28;20498;-68
2023/01/01 03:42:42;;;;;;;18.55;5.60;;;11.40;99.90;;;;;;5063910;28;20044;-69
2023/01/01 03:45:32;;;;;;;15.63;6.00;;;11.40;99.90;;;;;;5006371;28;20131;-68
2023/01/01 03:47:58;;;;;;;14.23;5.15;;;11.30;99.90;;;;;;5065189;28;20051;-68
2023/01/01 03:50:29;;;;;;;;;;;11.30;99.90;;;;;;5065372;28;20041;-69
2023/01/01 03:53:16;;;;;;;13.48;4.38;;;11.20;99.90;;;;;;5024058;28;19924;-70
2023/01/01 03:55:45;;;;;;;;;;;11.20;99.90;;;;;;5053696;28;20044;-68
2023/01/01 03:58:51;;;;;;;11.25;4.25;;;11.20;99.90;;;;;;5064482;28;19952;-68
2023/01/01 04:01:27;;;;;;;9.93;3.20;;;11.20;99.90;;;;;;4953850;28;20184;-69
2023/01/01 04:03:54;;;;;;;11.30;3.65;;;11.20;99.90;;;;;;4965455;28;20065;-68
2023/01/01 04:06:20;;;;;;;;;;;11.30;99.90;;;;;;5002884;28;20098;-68
2023/01/01 04:08:47;;;;;;;11.52;2.65;;;11.40;99.90;;;;;;5054981;28;19963;-68
2023/01/01 04:14:09;;;;;;;10.93;2.22;;;11.50;99.90;;;;;;5056040;28;20093;-70
2023/01/01 04:16:35;;;;;;;10.50;1.97;;;11.60;99.90;;;;;;5068866;28;20113;-69
2023/01/01 04:19:00;;;;;;;7.67;3.07;;;11.70;99.90;;;;;;5069067;28;20079;-69
2023/01/01 04:21:26;;;;;;;14.57;2.40;;;11.70;99.90;;;;;;5039658;28;20049;-69
2023/01/01 04:23:52;;;;;;;12.03;2.33;;;11.80;99.90;;;;;;5068189;28;20078;-68
2023/01/01 04:26:17;;;;;;;8.80;2.27;;;11.70;99.90;;;;;;5067860;28;20537;-69
2023/01/01 04:28:43;;;;;;;15.40;3.30;;;11.70;99.90;;;;;;5064313;28;20131;-68
2023/01/01 04:31:10;;;;;;;10.33;2.43;;;11.80;99.90;;;;;;5065072;28;20033;-68
2023/01/01 04:33:36;;;;;;;12.57;2.50;;;11.80;99.90;;;;;;5049262;28;20642;-69
2023/01/01 04:36:07;;;;;;;10.57;2.72;;;11.70;99.90;;;;;;5069210;28;20056;-68
2023/01/01 04:38:33;;;;;;;8.63;2.58;;;11.70;99.90;;;;;;5068134;28;20514;-69
2023/01/01 04:40:59;;;;;;;;;;;11.70;99.90;;;;;;5067480;28;20124;-68
2023/01/01 04:43:25;;;;;;;11.48;2.20;;;11.70;99.90;;;;;;5068241;28;20120;-68
2023/01/01 04:45:56;;;;;;;7.03;1.88;;;11.70;99.90;;;;;;5068212;28;20036;-68
2023/01/01 04:48:21;;;;;;;18.80;3.05;;;11.70;99.90;;;;;;5052624;28;20052;-68
2023/01/01 04:50:57;;;;;;;13.48;2.90;;;11.70;99.90;;;;;;5066678;28;20082;-68
2023/01/01 04:53:23;;;;;;;10.18;3.08;;;11.70;99.90;;;;;;5067977;28;20467;-69
2023/01/01 04:55:49;;;;;;;11.60;2.28;;;11.70;99.90;;;;;;5049454;28;20063;-69
2023/01/01 04:58:15;;;;;;;14.48;3.70;;;11.70;99.90;;;;;;5067531;28;20121;-68
2023/01/01 05:00:41;;;;;;;6.77;1.97;;;11.60;99.90;;;;;;5063099;28;20123;-69
2023/01/01 05:03:06;;;;;;;4.93;1.80;;;11.60;99.90;;;;;;5065312;28;20501;-68
2023/01/01 05:05:32;;;;;;;7.40;2.03;;;11.60;99.90;;;;;;5065987;28;20041;-68
2023/01/01 05:07:58;;;;;;;13.43;2.43;;;11.60;99.90;;;;;;5060625;28;20367;-68
2023/01/01 05:10:23;;;;;;;12.67;2.00;;;11.50;99.90;;;;;;5068011;28;20039;-68
2023/01/01 05:12:49;;;;;;;7.60;1.57;;;11.50;99.90;;;;;;5050163;28;20109;-69
2023/01/01 05:15:15;;;;;;;6.63;2.07;;;11.50;99.90;;;;;;5064816;28;20490;-68
2023/01/01 05:17:40;;;;;;;10.83;1.93;;;11.50;99.90;;;;;;5065843;28;20048;-68
2023/01/01 05:20:06;;;;;;;8.47;1.80;;;11.60;99.90;;;;;;5067970;28;20274;-68
2023/01/01 05:22:32;;;;;;;9.43;2.38;;;11.60;99.90;;;;;;5067224;28;20277;-68
2023/01/01 05:24:58;;;;;;;9.30;1.27;;;11.60;99.90;;;;;;5061049;28;20040;-69
2023/01/01 05:27:23;;;;;;;10.07;1.60;;;11.50;99.90;;;;;;5062630;28;20119;-68
2023/01/01 05:29:49;;;;;;;6.60;1.27;;;11.60;99.90;;;;;;5063503;28;20041;-68
2023/01/01 05:32:14;;;;;;;7.67;2.10;;;11.50;99.90;;;;;;5063621;28;20082;-69
2023/01/01 05:34:50;;;;;;;4.10;1.00;;;11.60;99.90;;;;;;5114371;22;20041;-85
2023/01/01 05:37:21;;;;;;;4.53;1.80;;;11.60;99.90;;;;;;5010708;28;20060;-83
2023/01/01 05:39:58;;;;;;;7.53;1.55;;;11.60;99.90;;;;;;5016848;28;20501;-84
2023/01/01 05:42:42;;;;;;;6.25;1.02;;;11.60;99.90;;;;;;5014818;28;20045;-85
2023/01/01 05:45:11;;;;;;;4.82;0.90;;;11.50;99.90;;;;;;5020849;28;20077;-86
2023/01/01 05:47:42;;;;;;;5.57;1.20;;;11.50;99.90;;;;;;4998171;28;20048;-86
2023/01/01 05:50:10;;;;;;;2.97;0.80;;;11.50;99.90;;;;;;4998890;28;20357;-86
2023/01/01 05:52:38;;;;;;;5.30;1.40;;;11.40;99.90;;;;;;5005426;28;20044;-87
2023/01/01 05:55:05;;;;;;;4.72;0.93;;;11.40;99.90;;;;;;5017550;28;20456;-84
2023/01/01 05:57:42;;;;;;;8.40;1.38;;;11.40;99.90;;;;;;5015294;28;20075;-85
2023/01/01 06:00:19;;;;;;;3.38;0.80;;;11.30;99.90;;;;;;4989010;28;20050;-85
2023/01/01 06:02:53;;;;;;;7.03;1.13;;;11.30;99.90;;;;;;5019716;28;20056;-84
2023/01/01 06:05:50;;;;;;;3.45;0.93;;;11.20;99.90;;;;;;5007600;28;20466;-87
2023/01/01 06:08:27;;;;;;;4.40;0.73;;;11.20;99.90;;;;;;5013455;28;20409;-84
2023/01/01 06:11:04;;;;;;;8.75;1.42;;;11.20;99.90;;;;;;4998409;28;20560;-85
2023/01/01 06:13:36;;;;;;;5.07;1.13;;;11.10;99.90;;;;;;5016221;28;20033;-84
2023/01/01 06:16:12;;;;;;;5.20;0.85;;;11.10;99.90;;;;;;5000879;28;20049;-84
2023/01/01 06:18:43;;;;;;;5.00;0.82;;;11.10;99.90;;;;;;4998805;28;20045;-85
2023/01/01 06:21:19;;;;;;;6.20;1.25;;;11.10;99.90;;;;;;4996162;28;20041;-84
2023/01/01 06:23:48;;;;;;;9.93;1.45;;;11.00;99.90;;;;;;5014692;28;20121;-83
2023/01/01 06:26:33;;;;;;;4.47;1.30;;;11.00;99.90;;;;;;5019556;28;20041;-86
2023/01/01 06:29:11;;;;;;;8.32;1.40;;;11.00;99.90;;;;;;5004622;28;20070;-85
2023/01/01 06:31:40;;;;;;;9.40;1.08;;;11.00;99.90;;;;;;5010691;28;20253;-84
2023/01/01 06:34:05;;;;;;;3.85;1.02;;;11.00;99.90;;;;;;5011111;28;20045;-84
2023/01/01 06:36:45;;;;;;;3.03;1.00;;;10.90;99.90;;;;;;5007715;28;20049;-84
2023/01/01 06:39:22;;;;;;;4.47;1.52;;;11.00;99.90;;;;;;4998276;28;20036;-84
2023/01/01 06:42:05;;;;;;;8.13;1.33;;;11.00;99.90;;;;;;5016319;28;20037;-86
2023/01/01 06:44:31;;;;;;;9.63;1.30;;;11.10;99.90;;;;;;5003797;28;20041;-85
2023/01/01 06:47:02;;;;;;;12.68;1.42;;;11.00;99.90;;;;;;4999542;28;20037;-84
2023/01/01 06:49:28;;;;;;;8.77;1.77;;;10.90;99.90;;;;;;4998488;28;20390;-83
2023/01/01 06:52:06;;;;;;;15.43;1.88;;;10.90;99.90;;;;;;5004376;28;20029;-84
2023/01/01 06:54:40;;;;;;;7.80;1.55;;;10.90;99.90;;;;;;5007424;28;20045;-85
2023/01/01 06:57:14;;;;;;;8.07;1.35;;;10.90;99.90;;;;;;5015357;28;20391;-84
2023/01/01 06:59:58;;;;;;;10.25;1.38;;;10.90;99.90;;;;;;5004542;28;20065;-84
2023/01/01 07:02:41;;;;;;;6.13;1.67;;;10.90;99.90;;;;;;5006244;28;20421;-85
2023/01/01 07:05:17;;;;;;;6.15;2.33;;;10.80;99.90;;;;;;5012686;28;20481;-84
2023/01/01 07:07:46;;;;;;;5.45;1.30;;;10.70;99.90;;;;;;5008111;28;20041;-85
2023/01/01 07:10:17;;;;;;;4.75;1.60;;;10.70;99.90;;;;;;5001819;28;20037;-84
2023/01/01 07:12:48;;;;;;;5.82;0.98;;;10.80;99.90;;;;;;5020278;28;20064;-83
2023/01/01 07:15:30;;;;;;;9.43;1.63;;;10.70;99.90;;;;;;5023642;28;20102;-83
2023/01/01 07:17:56;;;;;;;12.00;2.38;;;10.70;99.90;;;;;;5002942;28;20048;-85
2023/01/01 07:20:34;;;;;;;12.37;1.83;;;10.70;99.90;;;;;;4999987;28;20034;-87
2023/01/01 07:23:03;;;;;;;17.60;2.63;;;10.60;99.90;;;;;;5028295;28;20700;-85
2023/01/01 07:25:29;;;;;;;11.47;1.87;;;10.70;99.90;;;;;;5020347;28;20037;-85
2023/01/01 07:28:32;;;;;;;5.03;1.23;;;10.70;99.90;;;;;;5002131;28;20282;-85
2023/01/01 07:31:00;;;;;;;10.93;1.70;;;10.70;99.90;;;;;;5010108;28;20056;-84
2023/01/01 07:33:34;;;;;;;14.15;1.95;;;10.70;99.90;;;;;;5002897;28;20101;-81
2023/01/01 07:36:02;;;;;;;12.80;1.80;;;10.70;99.90;;;;;;4997959;28;20052;-84
2023/01/01 07:38:37;;;;;;;11.90;1.80;;;10.70;99.90;;;;;;5011926;28;20228;-82
2023/01/01 07:41:03;;;;;;;8.77;2.13;;;10.70;99.90;;;;;;5001611;28;20111;-84
2023/01/01 07:43:51;;;;;;;12.48;2.03;;;10.60;99.90;;;;;;5016297;28;20493;-84
2023/01/01 07:46:53;;;;;;;12.10;2.28;;;10.60;99.90;;;;;;5013028;28;20087;-82
2023/01/01 07:49:36;;;;;;;9.20;1.98;;;10.60;99.90;;;;;;5011861;28;20072;-84
2023/01/01 07:52:05;;;;;;;10.13;2.13;;;10.60;99.90;;;;;;5020095;28;20120;-82
2023/01/01 07:54:45;;;;;;;9.40;2.30;;;10.60;99.90;;;;;;5005518;28;20083;-83
2023/01/01 07:57:18;;;;;;;11.90;1.65;;;10.60;99.90;;;;;;5020969;28;20060;-86
2023/01/01 08:00:06;;;;;;;13.00;1.83;;;10.60;99.90;;;;;;5025552;28;20041;-84
2023/01/01 08:02:59;;;;;;;13.07;2.45;;;10.60;99.90;;;;;;4999284;28;20061;-85
2023/01/01 08:05:34;;;;;;;9.65;1.75;;;10.60;99.90;;;;;;5012881;28;20052;-85
2023/01/01 08:08:27;;;;;;;12.93;1.88;;;10.70;99.90;;;;;;5011344;28;20041;-84
2023/01/01 08:10:58;;;;;;;12.50;1.90;;;10.60;99.90;;;;;;5000112;28;20358;-84
2023/01/01 08:13:45;;;;;;;8.73;1.90;;;10.60;99.90;;;;;;5022518;28;20397;-84
2023/01/01 08:16:29;;;;;;;;;;;;;;;;;;;;;
2023/01/01 08:19:24;;;;;;;13.02;2.00;;;10.60;99.90;;;;;;5024052;28;20062;-83
2023/01/01 08:21:59;;;;;;;18.25;2.72;;;10.60;99.90;;;;;;4995526;28;20045;-88
2023/01/01 08:24:48;;;;;;;12.35;1.80;;;10.60;99.90;;;;;;4992452;28;20397;-85
2023/01/01 08:27:17;;;;;;;18.42;3.97;;;10.60;99.90;;;;;;5026413;28;20033;-84
2023/01/01 08:29:49;;;;;;;20.63;2.13;;;10.60;99.90;;;;;;5002743;28;20041;-86
2023/01/01 08:32:15;;;;;;;13.45;2.65;;;10.60;99.90;;;;;;4990624;28;20045;-85
2023/01/01 08:34:43;;;;;;;8.68;2.15;;;10.60;99.90;;;;;;5011653;28;20045;-83
2023/01/01 08:37:12;;;;;;;8.13;2.10;;;10.60;99.90;;;;;;5013193;28;20045;-83
2023/01/01 08:39:38;;;;;;;18.30;2.63;;;10.60;99.90;;;;;;4995929;28;20060;-85
2023/01/01 08:42:32;;;;;;;14.25;2.00;;;10.60;99.90;;;;;;5016879;28;20041;-84
2023/01/01 08:45:03;;;;;;;14.48;2.03;;;10.60;99.90;;;;;;4996382;28;20057;-84
2023/01/01 08:47:28;;;;;;;20.55;2.63;;;10.60;99.90;;;;;;4993753;28;20525;-83
2023/01/01 08:49:57;;;;;;;12.33;3.20;;;10.60;99.90;;;;;;5007460;28;20132;-84
2023/01/01 08:52:33;;;;;;;8.77;2.13;;;10.60;99.90;;;;;;5009866;28;20292;-86
2023/01/01 08:55:03;;;;;;;15.45;2.60;;;10.60;99.90;;;;;;5016207;28;20045;-87
2023/01/01 08:57:32;;;;;;;16.20;3.17;;;10.60;99.90;;;;;;5004243;28;20037;-86
2023/01/01 09:00:08;;;;;;;15.02;1.95;;;10.60;99.90;;;;;;5016409;28;20056;-84
2023/01/01 09:02:50;;;;;;;14.35;2.35;;;10.70;99.90;;;;;;5000145;28;20038;-84
2023/01/01 09:05:46;;;;;;;9.73;1.80;;;10.60;99.90;;;;;;5006529;28;20055;-84
2023/01/01 09:08:37;;;;;;;17.15;1.80;;;10.60;99.90;;;;;;5009262;28;20048;-84
2023/01/01 09:11:25;;;;;;;14.65;1.80;;;10.70;99.90;;;;;;5006512;28;20382;-85
2023/01/01 09:14:07;;;;;;;;;;;;;;;;;;;;;
2023/01/01 09:16:50;;;;;;;10.00;2.45;;;10.70;99.90;;;;;;5033736;28;20041;-83
2023/01/01 09:20:11;;;;;;;12.32;2.53;;;10.70;99.90;;;;;;5007261;28;20049;-84
2023/01/01 09:22:58;;;;;;;16.15;1.95;;;10.70;99.90;;;;;;4995050;28;20049;-83
2023/01/01 09:26:00;;;;;;;17.73;2.22;;;10.80;99.90;;;;;;5031162;28;20410;-84
2023/01/01 09:28:39;;;;;;;21.40;1.92;;;10.70;99.90;;;;;;5004482;28;20036;-84
2023/01/01 09:31:05;;;;;;;19.88;2.58;;;10.60;99.90;;;;;;5000231;28;20113;-87
2023/01/01 09:33:36;;;;;;;10.98;2.17;;;10.60;99.90;;;;;;5008259;28;20489;-83
2023/01/01 09:36:35;;;;;;;16.08;2.42;;;10.70;99.90;;;;;;5013754;28;20076;-84
2023/01/01 09:39:01;;;;;;;15.05;2.65;;;10.70;99.90;;;;;;5006247;28;20061;-86
2023/01/01 09:42:00;;;;;;;13.18;2.75;;;10.70;99.90;;;;;;5005183;28;20051;-87
2023/01/01 09:45:04;;;;;;;13.48;1.90;;;10.70;99.90;;;;;;5021659;28;20101;-85
2023/01/01 09:47:39;;;;;;;9.52;1.85;;;10.70;99.90;;;;;;5005841;28;20093;-84
2023/01/01 09:50:14;;;;;;;10.85;2.72;;;10.70;99.90;;;;;;5001226;28;20497;-84
2023/01/01 09:53:10;;;;;;;15.77;2.35;;;10.70;99.90;;;;;;5009540;28;20091;-85
2023/01/01 09:55:56;;;;;;;12.73;2.53;;;10.70;99.90;;;;;;4994288;28;20034;-85
2023/01/01 09:58:33;;;;;;;12.85;1.98;;;10.70;99.90;;;;;;5003830;28;20260;-88
2023/01/01 10:01:21;;;;;;;;;;;10.70;99.90;;;;;;5023532;28;20093;-84
2023/01/01 10:03:56;;;;;;;16.73;2.42;;;10.70;99.90;;;;;;5002256;28;19931;-84
2023/01/01 10:06:35;;;;;;;11.67;2.00;;;10.80;99.90;;;;;;5006101;28;20128;-89
2023/01/01 10:09:26;;;;;;;14.68;3.30;;;10.80;99.90;;;;;;5040059;28;20041;-89
2023/01/01 10:12:34;;;;;;;15.30;3.30;;;10.90;99.90;;;;;;5027498;28;20091;-86
2023/01/01 10:15:16;;;;;;;15.95;2.10;;;10.90;99.90;;;;;;5010504;28;20052;-85
2023/01/01 10:17:49;;;;;;;8.38;1.83;;;11.00;99.90;;;;;;5000700;28;20049;-86
2023/01/01 10:20:43;;;;;;;7.10;2.03;;;11.00;99.90;;;;;;5001982;28;20339;-85
2023/01/01 10:23:27;;;;;;;8.10;1.42;;;11.10;99.90;;;;;;5021148;28;20114;-86
2023/01/01 10:29:34;;;;;;;22.15;2.65;;;11.10;99.90;;;;;;5013660;28;20408;-84
2023/01/01 10:32:17;;;;;;;11.55;2.00;;;11.10;99.90;;;;;;5021002;28;20095;-83
2023/01/01 10:34:43;;;;;;;13.82;2.50;;;11.10;99.90;;;;;;5007957;28;20048;-85
2023/01/01 10:37:22;;;;;;;12.65;2.30;;;11.10;99.90;;;;;;4999170;28;20049;-85
2023/01/01 10:39:56;;;;;;;19.17;2.15;;;11.10;99.90;;;;;;5007043;28;20056;-84
2023/01/01 10:42:32;;;;;;;9.60;1.55;;;11.10;99.90;;;;;;5000302;28;20056;-83
2023/01/01 10:45:13;;;;;;;13.05;2.08;;;11.00;99.90;;;;;;4997808;28;20602;-84
2023/01/01 10:48:19;;;;;;;11.80;1.58;;;11.00;99.90;;;;;;5014818;28;20464;-85
2023/01/01 10:50:48;;;;;;;9.75;2.00;;;11.00;99.90;;;;;;5013975;28;20417;-84
2023/01/01 10:53:40;;;;;;;15.40;2.15;;;11.00;99.90;;;;;;5017308;28;20048;-84
2023/01/01 10:56:21;;;;;;;10.27;2.22;;;11.00;99.90;;;;;;5013858;28;20127;-84
2023/01/01 10:58:56;;;;;;;11.65;1.70;;;11.00;99.90;;;;;;5000771;28;20032;-85
2023/01/01 11:01:38;;;;;;;14.55;2.15;;;11.00;99.90;;;;;;5005235;28;20187;-86
2023/01/01 11:04:13;;;;;;;13.73;2.05;;;11.00;99.90;;;;;;4999357;28;20057;-84
2023/01/01 11:06:49;;;;;;;13.57;1.60;;;11.00;99.90;;;;;;5004440;28;20045;-84
2023/01/01 11:09:30;;;;;;;8.75;0.95;;;11.10;99.90;;;;;;5006330;28;20045;-87
2023/01/01 11:12:09;;;;;;;11.68;2.63;;;11.10;99.90;;;;;;5000718;28;20276;-85
2023/01/01 11:14:44;;;;;;;9.98;1.20;;;11.10;99.90;;;;;;5010783;28;20037;-85
2023/01/01 11:17:45;;;;;;;6.90;1.98;;;11.20;99.90;;;;;;5050805;28;20038;-87
2023/01/01 11:20:43;;;;;;;11.90;2.10;;;11.20;99.90;;;;;;4983768;28;20108;-83
2023/01/01 11:23:40;;;;;;;8.20;2.00;;;11.20;99.90;;;;;;5027473;28;20122;-85
2023/01/01 11:26:11;;;;;;;12.95;1.50;;;11.20;99.90;;;;;;5012018;28;20099;-83
2023/01/01 11:28:40;;;;;;;11.55;2.15;;;11.10;99.90;;;;;;5010763;28;20033;-84
2023/01/01 11:31:17;;;;;;;11.77;2.00;;;11.20;99.90;;;;;;5018234;28;20477;-83
2023/01/01 11:33:43;;;;;;;9.70;2.05;;;11.10;99.90;;;;;;5063651;22;21794;-69
2023/01/01 11:36:09;;;;;;;6.68;1.55;;;11.10;99.90;;;;;;5034501;28;20042;-70
2023/01/01 11:38:35;;;;;;;14.23;2.15;;;11.10;99.90;;;;;;5010843;28;20116;-70
2023/01/01 11:41:04;;;;;;;14.30;2.35;;;11.10;99.90;;;;;;5022915;28;20443;-69
2023/01/01 11:43:39;;;;;;;10.95;1.30;;;11.10;99.90;;;;;;5025003;28;20052;-69
2023/01/01 11:46:13;;;;;;;10.30;1.85;;;11.10;99.90;;;;;;5030009;28;20049;-69
2023/01/01 11:48:42;;;;;;;9.15;1.88;;;11.20;99.90;;;;;;5033193;28;20071;-69
2023/01/01 11:51:10;;;;;;;9.77;2.13;;;11.20;99.90;;;;;;5004518;28;20076;-68
2023/01/01 11:53:40;;;;;;;12.57;2.00;;;11.20;99.90;;;;;;4996119;28;20403;-69
2023/01/01 11:56:15;;;;;;;6.95;1.60;;;11.20;99.90;;;;;;5034699;28;20088;-68
2023/01/01 11:58:54;;;;;;;15.05;2.28;;;11.20;99.90;;;;;;5012363;28;20049;-69
2023/01/01 12:01:53;;;;;;;14.32;2.97;;;11.30;99.90;;;;;;5002841;28;20230;-69
2023/01/01 12:04:26;;;;;;;13.40;2.95;;;11.40;99.90;;;;;;5005841;28;20375;-69
2023/01/01 12:07:17;;;;;;;18.10;2.47;;;11.50;99.90;;;;;;5010982;28;20094;-69
2023/01/01 12:09:49;;;;;;;13.95;1.90;;;11.50;99.90;;;;;;5025974;28;20333;-69
2023/01/01 12:12:40;;;;;;;11.30;1.92;;;11.50;99.90;;;;;;5024103;28;20034;-69
2023/01/01 12:15:14;;;;;;;11.35;1.27;;;11.50;99.90;;;;;;5024962;28;20077;-69
2023/01/01 12:17:50;;;;;;;7.68;1.33;;;11.50;99.90;;;;;;5014758;28;20045;-69
2023/01/01 12:20:26;;;;;;;17.27;2.05;;;11.50;99.90;;;;;;5025324;28;20466;-68
2023/01/01 12:22:58;;;;;;;7.57;1.50;;;11.50;99.90;;;;;;5026652;28;20526;-69
2023/01/01 12:25:31;;;;;;;7.43;1.38;;;11.50;99.90;;;;;;5024771;28;20081;-69
2023/01/01 12:28:32;;;;;;;8.88;1.65;;;11.50;99.90;;;;;;5006128;28;20071;-68
2023/01/01 12:31:17;;;;;;;9.45;1.40;;;11.50;99.90;;;;;;5019639;28;20092;-69
2023/01/01 12:34:34;;;;;;;20.10;3.45;;;11.50;99.90;;;;;;5029173;28;20495;-69
2023/01/01 12:37:36;;;;;;;10.68;1.60;;;11.50;99.90;;;;;;4944866;28;20473;-69
2023/01/01 12:40:05;;;;;;;12.25;2.35;;;11.60;99.90;;;;;;4944262;28;20413;-69
2023/01/01 12:42:42;;;;;;;9.27;1.90;;;11.60;99.90;;;;;;4992111;28;20132;-69
2023/01/01 12:45:19;;;;;;;5.07;1.65;;;11.60;99.90;;;;;;5018445;28;20493;-69
2023/01/01 12:47:57;;;;;;;8.32;1.88;;;11.50;99.90;;;;;;5015136;28;20049;-69
2023/01/01 12:51:03;;;;;;;10.73;2.22;;;11.60;99.90;;;;;;5025024;28;20033;-68
2023/01/01 12:53:34;;;;;;;8.43;1.30;;;11.60;99.90;;;;;;5005686;28;20342;-69
2023/01/01 12:56:03;;;;;;;12.60;2.13;;;11.70;99.90;;;;;;5020295;28;20064;-69
2023/01/01 12:58:41;;;;;;;11.35;1.88;;;11.60;99.90;;;;;;5024463;28;20045;-68
2023/01/01 13:01:13;;;;;;;10.60;1.73;;;11.70;99.90;;;;;;5022147;28;20043;-69
2023/01/01 13:03:49;;;;;;;7.50;1.95;;;11.70;99.90;;;;;;5010771;28;20515;-69
2023/01/01 13:06:20;;;;;;;8.40;1.25;;;11.60;99.90;;;;;;5027649;28;20042;-69
2023/01/01 13:08:52;;;;;;;5.88;1.05;;;11.60;99.90;;;;;;5037183;28;20052;-69
2023/01/01 13:11:18;;;;;;;12.23;2.00;;;11.70;99.90;;;;;;5007256;28;20268;-69
2023/01/01 13:13:44;;;;;;;5.18;1.40;;;11.70;99.90;;;;;;5030019;28;20125;-69
2023/01/01 13:16:12;;;;;;;8.17;1.40;;;11.60;99.90;;;;;;5014422;28;20063;-69
2023/01/01 13:18:38;;;;;;;10.90;1.63;;;11.70;99.90;;;;;;5028987;28;20298;-69
2023/01/01 13:21:19;;;;;;;7.88;1.48;;;11.60;99.90;;;;;;5007605;28;20054;-68
2023/01/01 13:23:46;;;;;;;10.93;2.33;;;11.60;99.90;;;;;;5021078;28;20052;-69
2023/01/01 13:26:21;;;;;;;8.63;2.10;;;11.60;99.90;;;;;;5014235;28;20047;-68
2023/01/01 13:28:56;;;;;;;7.03;1.83;;;11.60;99.90;;;;;;5009366;28;20268;-68
2023/01/01 13:31:37;;;;;;;10.90;1.95;;;11.60;99.90;;;;;;5027593;28;20037;-69
2023/01/01 13:34:40;;;;;;;10.13;1.35;;;11.60;99.90;;;;;;5010867;28;20085;-68
2023/01/01 13:37:09;;;;;;;10.43;1.58;;;11.50;99.90;;;;;;5023081;28;20387;-69